Valparaiso, FL

8:35 PM CST on December 24, 2014 (GMT -0600)
Pear Tree Observatory | Change Station
CLOSE
Current Station
Personal Weather Station
Location: Valparaiso, FL
Elevation: 80 ft
Nearby Weather Stations
Active Advisory: Flood Warning

Elev 80 ft 30.51 °N, 86.50 °W | Updated 3 seconds ago

Overcast
Overcast
51.8 °F
Feels Like 51.8 °F
N
0.0
Wind Variable Wind from NW
Gusts 0.0 mph

Today
High -- | Low -- °F
--% Chance of Precip.
Yesterday
High -- | Low -- °F
Precip. -- in
6:40 AM 4:51 PM
Waxing Crescent, 12% visible
Pressure 30.01 in
Visibility 10.0 miles
Clouds Few 2000 ft
Overcast 16000 ft
Dew Point 50 °F
Humidity 93%
Rainfall 1.27 in
Snow Depth Not available.
UV 0 out of 12
Pollen .50 out of 12
Air Quality Not available.
Flu Activity Not available.
METAR KVPS 250155Z COR 27006KT 10SM FEW020 OVC160 12/09 A2999 RMK AO2A SLP162 T01180091 $ COR 0158

More Conditions Fewer Conditions

Pressure 30.01 in
Visibility 10.0 miles
Clouds Few 2000 ft
Overcast 16000 ft
Dew Point 50 °F
Humidity 93%
Rainfall 1.27 in
Snow Depth Not available.
UV 0 out of 12
Pollen .50 out of 12
Air Quality Not available.
Flu Activity Not available.
METAR KVPS 250155Z COR 27006KT 10SM FEW020 OVC160 12/09 A2999 RMK AO2A SLP162 T01180091 $ COR 0158

More Conditions Fewer Conditions

10-Day Weather Forecast

Almanac

Astronomy

Dec. 24, 2014 Rise Set
Actual Time
Civil Twilight
Nautical Twilight
Astronomical Twilight
Moon
Length of Visible Light
Length of Day
Tomorrow will be .
, % of the Moon is Illuminated

Today's Extremes

State Highs State Lows

Community

WunderPhotos

Upload Photos

1,780,215 photos uploaded!

WunderBlogs® & News

Nearby

Air Quality

  Air Quality AQ Index Pollutant
Not available.

Snow Depth

Station Depth Elevation

Earthquake Activity

City Distance Mag. Time & Date
Minimum magnitude displayed is 2.5.

Coastal Water Temperatures

Place Temperature

Nearby Weather Stations